createdAt,value
2022-12-03T00:01:01.672Z,88.06
2022-12-03T00:03:29.563Z,88.06
2022-12-03T00:05:56.684Z,88.30
2022-12-03T00:08:23.629Z,88.96
2022-12-03T00:10:50.529Z,89.29
2022-12-03T00:13:17.434Z,89.07
2022-12-03T00:15:44.471Z,89.15
2022-12-03T00:18:11.475Z,89.09
2022-12-03T00:20:38.394Z,88.43
2022-12-03T00:23:05.552Z,88.04
2022-12-03T00:25:32.522Z,87.65
2022-12-03T00:27:59.502Z,86.96
2022-12-03T00:30:26.439Z,87.35
2022-12-03T00:32:53.353Z,87.83
2022-12-03T00:35:21.427Z,87.72
2022-12-03T00:37:48.439Z,88.27
2022-12-03T00:40:15.505Z,88.38
2022-12-03T00:42:42.461Z,88.00
2022-12-03T00:45:09.959Z,88.64
2022-12-03T00:47:36.886Z,89.51
2022-12-03T00:50:05.386Z,88.61
2022-12-03T00:52:32.351Z,89.00
2022-12-03T00:54:59.256Z,88.77
2022-12-03T00:57:26.192Z,88.99
2022-12-03T00:59:53.105Z,89.52
2022-12-03T01:02:20.091Z,89.83
2022-12-03T01:04:47.163Z,89.32
2022-12-03T01:07:14.509Z,89.81
2022-12-03T01:09:41.408Z,90.04
2022-12-03T01:12:08.309Z,90.09
2022-12-03T01:14:35.273Z,89.34
2022-12-03T01:17:02.185Z,88.91
2022-12-03T01:19:29.289Z,88.99
2022-12-03T01:21:56.301Z,89.13
2022-12-03T01:24:23.222Z,89.74
2022-12-03T01:26:50.221Z,89.64
2022-12-03T01:29:17.248Z,89.05
2022-12-03T01:32:02.928Z,89.54
2022-12-03T01:34:29.997Z,89.89
2022-12-03T01:36:57.202Z,89.68
2022-12-03T01:39:24.418Z,89.54
2022-12-03T01:41:53.183Z,89.46
2022-12-03T01:44:27.391Z,89.83
2022-12-03T01:46:56.754Z,89.80
2022-12-03T01:49:56.836Z,89.51
2022-12-03T01:52:29.151Z,90.13
2022-12-03T01:55:00.391Z,89.54
2022-12-03T01:57:41.029Z,89.78
2022-12-03T02:00:19.435Z,89.67
2022-12-03T02:02:50.288Z,89.38
2022-12-03T02:05:21.204Z,88.70
2022-12-03T02:07:48.853Z,88.79
2022-12-03T02:10:20.067Z,88.69
2022-12-03T02:13:03.020Z,88.37
2022-12-03T02:15:30.483Z,88.44
2022-12-03T02:17:57.828Z,88.79
2022-12-03T02:20:24.868Z,88.30
2022-12-03T02:23:03.977Z,88.84
2022-12-03T02:25:34.694Z,88.73
2022-12-03T02:28:03.670Z,88.52
2022-12-03T02:30:32.262Z,88.31
2022-12-03T02:32:59.768Z,87.99
2022-12-03T02:35:31.665Z,87.96
2022-12-03T02:38:19.917Z,88.31
2022-12-03T02:40:49.721Z,87.73
2022-12-03T02:43:20.456Z,87.60
2022-12-03T02:45:52.022Z,87.50
2022-12-03T02:48:34.728Z,87.37
2022-12-03T02:51:05.987Z,87.23
2022-12-03T02:53:45.081Z,87.40
2022-12-03T02:56:17.002Z,87.30
2022-12-03T02:58:47.071Z,87.30
2022-12-03T03:01:15.555Z,87.15
2022-12-03T03:03:43.668Z,87.07
2022-12-03T03:06:11.073Z,86.65
2022-12-03T03:08:39.264Z,87.28
2022-12-03T03:11:06.384Z,87.05
2022-12-03T03:13:35.416Z,87.53
2022-12-03T03:16:04.733Z,87.04
2022-12-03T03:18:33.684Z,87.03
2022-12-03T03:21:00.901Z,86.49
2022-12-03T03:23:27.959Z,86.78
2022-12-03T03:26:05.928Z,86.89
2022-12-03T03:28:38.319Z,86.54
2022-12-03T03:31:08.237Z,86.80
2022-12-03T03:33:36.492Z,86.79
2022-12-03T03:36:03.609Z,86.65
2022-12-03T03:38:31.898Z,87.23
2022-12-03T03:41:00.540Z,86.81
2022-12-03T03:43:28.729Z,87.03
2022-12-03T03:45:56.244Z,86.70
2022-12-03T03:48:23.586Z,87.39
2022-12-03T03:50:51.969Z,86.96
2022-12-03T03:53:20.761Z,86.95
2022-12-03T03:55:48.181Z,87.47
2022-12-03T03:58:15.175Z,87.03
2022-12-03T04:00:46.395Z,86.99
2022-12-03T04:03:13.460Z,87.43
2022-12-03T04:05:40.773Z,87.49
2022-12-03T04:08:07.789Z,87.25
2022-12-03T04:10:53.296Z,87.49
2022-12-03T04:13:20.238Z,87.51
2022-12-03T04:15:47.140Z,87.52
2022-12-03T04:18:32.661Z,88.29
2022-12-03T04:21:19.857Z,88.13
2022-12-03T04:23:46.801Z,87.64
2022-12-03T04:26:32.451Z,88.20
2022-12-03T04:28:59.482Z,88.01
2022-12-03T04:31:45.443Z,87.74
2022-12-03T04:34:30.890Z,87.87
2022-12-03T04:36:57.862Z,88.07
2022-12-03T04:39:24.934Z,87.93
2022-12-03T04:41:51.930Z,88.08
2022-12-03T04:44:36.350Z,87.62
2022-12-03T04:47:20.537Z,88.86
2022-12-03T04:49:50.482Z,89.09
2022-12-03T04:52:20.610Z,88.89
2022-12-03T04:54:47.847Z,88.83
2022-12-03T04:57:14.850Z,88.86
2022-12-03T04:59:41.771Z,88.90
2022-12-03T05:02:09.001Z,88.08
2022-12-03T05:04:36.038Z,88.37
2022-12-03T05:07:03.492Z,88.45
2022-12-03T05:09:30.443Z,88.99
2022-12-03T05:11:57.383Z,88.21
2022-12-03T05:14:24.307Z,88.41
2022-12-03T05:16:51.339Z,88.09
2022-12-03T05:19:18.412Z,87.89
2022-12-03T05:21:45.386Z,89.30
2022-12-03T05:24:12.279Z,88.72
2022-12-03T05:26:39.212Z,89.71
2022-12-03T05:29:06.165Z,89.25
2022-12-03T05:31:33.070Z,88.66
2022-12-03T05:34:00.084Z,88.64
2022-12-03T05:36:27.048Z,87.76
2022-12-03T05:38:53.995Z,88.80
2022-12-03T05:41:39.511Z,88.58
2022-12-03T05:44:06.489Z,87.85
2022-12-03T05:46:33.795Z,88.08
2022-12-03T05:49:01.020Z,87.39
2022-12-03T05:51:28.239Z,86.99
2022-12-03T05:53:55.165Z,86.62
2022-12-03T05:56:22.098Z,86.83
2022-12-03T05:58:48.997Z,86.77
2022-12-03T06:01:16.086Z,87.09
2022-12-03T06:03:43.118Z,86.94
2022-12-03T06:06:10.101Z,87.03
2022-12-03T06:08:36.994Z,87.56
2022-12-03T06:11:04.104Z,88.08
2022-12-03T06:13:31.006Z,86.61
2022-12-03T06:15:58.064Z,86.73
2022-12-03T06:18:25.046Z,86.90
2022-12-03T06:20:51.978Z,86.98
2022-12-03T06:23:18.999Z,87.34
2022-12-03T06:25:45.962Z,87.30
2022-12-03T06:28:12.941Z,87.60
2022-12-03T06:30:40.117Z,86.78
2022-12-03T06:33:07.043Z,87.31
2022-12-03T06:35:33.951Z,87.75
2022-12-03T06:38:00.946Z,87.56
2022-12-03T06:40:27.956Z,87.39
2022-12-03T06:42:54.910Z,86.83
2022-12-03T06:45:21.907Z,87.21
2022-12-03T06:47:48.873Z,86.38
2022-12-03T06:50:15.975Z,85.54
2022-12-03T06:52:42.882Z,85.92
2022-12-03T06:55:10.128Z,85.83
2022-12-03T06:57:37.103Z,85.86
2022-12-03T07:00:08.880Z,85.41
2022-12-03T07:02:36.527Z,85.61
2022-12-03T07:05:04.014Z,85.13
2022-12-03T07:07:31.060Z,85.32
2022-12-03T07:09:58.094Z,85.33
2022-12-03T07:12:25.034Z,85.14
2022-12-03T07:14:52.415Z,84.89
2022-12-03T07:17:19.690Z,84.14
2022-12-03T07:19:46.688Z,84.29
2022-12-03T07:22:13.679Z,84.47
2022-12-03T07:24:40.701Z,84.70
2022-12-03T07:27:07.799Z,85.11
2022-12-03T07:29:34.770Z,85.54
2022-12-03T07:32:01.679Z,86.03
2022-12-03T07:34:28.656Z,86.42
2022-12-03T07:36:55.619Z,86.53
2022-12-03T07:39:22.610Z,86.88
2022-12-03T07:41:49.811Z,87.06
2022-12-03T07:44:16.774Z,86.92
2022-12-03T07:46:43.886Z,86.54
2022-12-03T07:49:12.255Z,86.73
2022-12-03T07:51:39.350Z,87.31
2022-12-03T07:54:06.342Z,87.91
2022-12-03T07:56:33.359Z,87.33
2022-12-03T07:59:00.350Z,87.30
2022-12-03T08:01:27.386Z,87.20
2022-12-03T08:03:54.464Z,87.93
2022-12-03T08:06:21.386Z,87.98
2022-12-03T08:08:48.335Z,88.56
2022-12-03T08:11:15.794Z,88.33
2022-12-03T08:13:43.396Z,88.64
2022-12-03T08:16:22.100Z,88.91
2022-12-03T08:18:51.246Z,88.00
2022-12-03T08:21:20.994Z,87.83
2022-12-03T08:23:48.386Z,87.98
2022-12-03T08:26:25.626Z,88.08
2022-12-03T08:28:53.764Z,88.72
2022-12-03T08:31:32.891Z,88.61
2022-12-03T08:34:18.845Z,87.98
2022-12-03T08:36:47.651Z,88.08
2022-12-03T08:39:33.764Z,89.16
2022-12-03T08:42:44.179Z,88.80
2022-12-03T08:45:32.877Z,88.91
2022-12-03T08:48:05.819Z,89.03
2022-12-03T08:50:41.306Z,88.89
2022-12-03T08:53:14.221Z,88.73
2022-12-03T08:55:55.016Z,87.31
2022-12-03T08:58:40.139Z,88.03
2022-12-03T09:01:12.993Z,87.94
2022-12-03T09:03:51.116Z,88.20
2022-12-03T09:06:18.560Z,88.09
2022-12-03T09:08:45.501Z,88.24
2022-12-03T09:11:12.950Z,88.09
2022-12-03T09:13:39.966Z,88.56
2022-12-03T09:16:07.340Z,88.30
2022-12-03T09:18:34.374Z,88.85
2022-12-03T09:21:01.412Z,89.15
2022-12-03T09:23:28.334Z,88.51
2022-12-03T09:25:55.246Z,88.91
2022-12-03T09:28:22.171Z,88.43
2022-12-03T09:30:49.073Z,88.96
2022-12-03T09:33:16.089Z,88.79
2022-12-03T09:35:43.074Z,88.84
2022-12-03T09:38:10.014Z,88.15
2022-12-03T09:40:36.944Z,87.57
2022-12-03T09:43:04.549Z,87.00
2022-12-03T09:45:31.728Z,86.71
2022-12-03T09:48:01.162Z,86.58
2022-12-03T09:50:28.441Z,87.54
2022-12-03T09:53:00.328Z,87.57
2022-12-03T09:55:28.963Z,87.56
2022-12-03T09:57:57.816Z,87.64
2022-12-03T10:00:30.636Z,87.46
2022-12-03T10:03:02.907Z,87.09
2022-12-03T10:05:30.376Z,87.10
2022-12-03T10:08:18.149Z,86.10
2022-12-03T10:10:45.361Z,86.88
2022-12-03T10:13:25.275Z,85.96
2022-12-03T10:15:56.184Z,85.42
2022-12-03T10:18:32.729Z,85.83
2022-12-03T10:21:01.775Z,85.44
2022-12-03T10:23:31.184Z,84.13
2022-12-03T10:26:03.669Z,84.29
2022-12-03T10:28:37.245Z,83.77
2022-12-03T10:31:08.755Z,83.63
2022-12-03T10:33:39.235Z,83.57
2022-12-03T10:36:23.349Z,83.96
2022-12-03T10:39:16.471Z,85.30
2022-12-03T10:41:44.736Z,85.54
2022-12-03T10:44:25.528Z,86.16
2022-12-03T10:47:12.408Z,86.19
2022-12-03T10:49:41.544Z,86.25
2022-12-03T10:52:25.885Z,86.71
2022-12-03T10:54:53.528Z,86.68
2022-12-03T10:57:20.810Z,86.40
2022-12-03T10:59:47.759Z,86.85
2022-12-03T11:02:21.916Z,87.30
2022-12-03T11:04:50.379Z,87.56
2022-12-03T11:07:22.755Z,87.45
2022-12-03T11:09:54.699Z,87.55
2022-12-03T11:12:29.241Z,87.87
2022-12-03T11:14:56.775Z,88.79
2022-12-03T11:17:40.289Z,89.05
2022-12-03T11:20:25.672Z,89.34
2022-12-03T11:22:57.923Z,88.20
2022-12-03T11:25:28.010Z,88.52
2022-12-03T11:28:12.945Z,88.79
2022-12-03T11:30:49.200Z,88.65
2022-12-03T11:33:25.272Z,88.48
2022-12-03T11:36:04.180Z,87.96
2022-12-03T11:38:53.929Z,87.68
2022-12-03T11:41:33.504Z,88.28
2022-12-03T11:44:31.900Z,88.68
2022-12-03T11:47:00.517Z,89.07
2022-12-03T11:49:45.790Z,88.75
2022-12-03T11:52:27.170Z,88.90
2022-12-03T11:55:30.152Z,89.13
2022-12-03T11:58:06.005Z,88.67
2022-12-03T12:00:32.991Z,89.05
2022-12-03T12:03:00.013Z,89.01
2022-12-03T12:05:34.467Z,89.04
2022-12-03T12:08:03.430Z,89.31
2022-12-03T12:10:49.172Z,88.58
2022-12-03T12:13:31.012Z,88.86
2022-12-03T12:15:59.302Z,88.14
2022-12-03T12:18:44.930Z,88.10
2022-12-03T12:21:42.011Z,88.33
2022-12-03T12:25:01.251Z,88.85
2022-12-03T12:27:34.225Z,88.69
2022-12-03T12:30:15.499Z,88.69
2022-12-03T12:32:50.498Z,88.84
2022-12-03T12:35:32.543Z,88.96
2022-12-03T12:38:10.851Z,88.60
2022-12-03T12:40:40.764Z,88.86
2022-12-03T12:43:29.536Z,88.49
2022-12-03T12:46:18.754Z,88.98
2022-12-03T12:48:48.696Z,88.52
2022-12-03T12:51:18.894Z,88.00
2022-12-03T12:53:46.466Z,88.43
2022-12-03T12:56:44.989Z,87.84
2022-12-03T12:59:16.217Z,87.86
2022-12-03T13:01:45.847Z,88.11
2022-12-03T13:04:22.674Z,88.74
2022-12-03T13:06:52.906Z,88.22
2022-12-03T13:09:23.947Z,88.68
2022-12-03T13:11:58.126Z,88.35
2022-12-03T13:14:36.679Z,89.04
2022-12-03T13:17:19.624Z,89.41
2022-12-03T13:20:00.604Z,89.18
2022-12-03T13:22:30.718Z,89.15
2022-12-03T13:24:59.317Z,88.95
2022-12-03T13:27:30.026Z,88.91
2022-12-03T13:30:15.657Z,89.20
2022-12-03T13:32:43.531Z,89.23
2022-12-03T13:35:16.129Z,89.26
2022-12-03T13:37:43.233Z,89.25
2022-12-03T13:40:26.064Z,89.58
2022-12-03T13:42:54.296Z,90.09
2022-12-03T13:45:54.419Z,90.06
2022-12-03T13:48:31.865Z,89.93
2022-12-03T13:51:23.165Z,89.83
2022-12-03T13:53:50.200Z,89.98
2022-12-03T13:56:43.273Z,90.53
2022-12-03T13:59:10.269Z,90.62
2022-12-03T14:01:37.334Z,90.49
2022-12-03T14:04:04.706Z,90.28
2022-12-03T14:06:33.613Z,89.96
2022-12-03T14:09:00.755Z,89.94
2022-12-03T14:11:46.397Z,90.57
2022-12-03T14:14:13.502Z,90.58
2022-12-03T14:16:40.549Z,91.05
2022-12-03T14:19:07.756Z,91.68
2022-12-03T14:21:34.760Z,91.90
2022-12-03T14:24:01.702Z,92.14
2022-12-03T14:26:28.690Z,92.07
2022-12-03T14:28:55.614Z,91.82
2022-12-03T14:31:22.665Z,91.55
2022-12-03T14:33:49.668Z,91.90
2022-12-03T14:36:16.594Z,91.80
2022-12-03T14:38:43.523Z,92.14
2022-12-03T14:41:30.396Z,91.98
2022-12-03T14:43:57.367Z,91.67
2022-12-03T14:46:24.342Z,92.41
2022-12-03T14:48:51.288Z,92.75
2022-12-03T14:51:18.212Z,92.50
2022-12-03T14:53:45.183Z,92.50
2022-12-03T14:56:12.137Z,92.89
2022-12-03T14:58:39.114Z,93.24
2022-12-03T15:01:06.265Z,93.36
2022-12-03T15:03:33.298Z,93.02
2022-12-03T15:06:00.727Z,93.02
2022-12-03T15:08:30.404Z,93.68
2022-12-03T15:10:57.422Z,94.26
2022-12-03T15:13:24.373Z,93.29
2022-12-03T15:15:51.403Z,94.00
2022-12-03T15:18:18.678Z,94.65
2022-12-03T15:20:45.673Z,94.77
2022-12-03T15:23:14.549Z,93.84
2022-12-03T15:25:41.852Z,93.95
2022-12-03T15:28:08.999Z,93.96
2022-12-03T15:30:36.169Z,93.87
2022-12-03T15:33:04.154Z,94.82
2022-12-03T15:35:31.455Z,95.07
2022-12-03T15:37:58.637Z,95.11
2022-12-03T15:40:26.145Z,95.55
2022-12-03T15:42:53.223Z,95.79
2022-12-03T15:45:20.345Z,96.68
2022-12-03T15:47:47.310Z,96.15
2022-12-03T15:50:14.740Z,96.58
2022-12-03T15:52:41.764Z,96.59
2022-12-03T15:55:09.456Z,96.64
2022-12-03T15:57:36.422Z,96.72
2022-12-03T16:00:05.019Z,96.42
2022-12-03T16:02:35.630Z,96.49
2022-12-03T16:05:05.347Z,96.54
2022-12-03T16:07:32.420Z,96.48
2022-12-03T16:09:59.468Z,96.93
2022-12-03T16:12:26.382Z,96.41
2022-12-03T16:14:53.445Z,96.44
2022-12-03T16:17:20.624Z,96.61
2022-12-03T16:19:47.630Z,96.04
2022-12-03T16:22:15.052Z,95.84
2022-12-03T16:24:41.990Z,95.89
2022-12-03T16:27:09.021Z,96.23
2022-12-03T16:29:36.055Z,96.49
2022-12-03T16:32:03.407Z,97.28
2022-12-03T16:34:30.409Z,96.72
2022-12-03T16:36:57.339Z,96.99
2022-12-03T16:39:24.603Z,96.80
2022-12-03T16:41:51.703Z,96.99
2022-12-03T16:44:32.548Z,97.32
2022-12-03T16:47:01.449Z,97.74
2022-12-03T16:49:28.768Z,97.76
2022-12-03T16:51:55.700Z,97.17
2022-12-03T16:54:22.653Z,97.46
2022-12-03T16:56:49.619Z,97.85
2022-12-03T16:59:16.593Z,97.66
2022-12-03T17:01:43.694Z,97.64
2022-12-03T17:04:10.777Z,98.35
2022-12-03T17:06:37.880Z,98.43
2022-12-03T17:09:05.033Z,97.85
2022-12-03T17:11:31.994Z,97.42
2022-12-03T17:13:59.052Z,97.04
2022-12-03T17:16:26.041Z,97.67
2022-12-03T17:18:53.005Z,97.94
2022-12-03T17:21:20.015Z,98.03
2022-12-03T17:23:48.964Z,98.43
2022-12-03T17:26:15.946Z,98.67
2022-12-03T17:28:43.063Z,98.58
2022-12-03T17:31:10.360Z,97.99
2022-12-03T17:33:37.522Z,97.95
2022-12-03T17:36:05.173Z,97.61
2022-12-03T17:38:38.818Z,98.57
2022-12-03T17:41:07.514Z,98.18
2022-12-03T17:43:34.500Z,98.37
2022-12-03T17:46:01.534Z,98.76
2022-12-03T17:48:31.108Z,97.78
2022-12-03T17:50:58.225Z,98.11
2022-12-03T17:53:25.400Z,98.04
2022-12-03T17:55:52.344Z,97.99
2022-12-03T17:58:19.809Z,97.98
2022-12-03T18:00:46.882Z,97.97
2022-12-03T18:03:13.846Z,97.99
2022-12-03T18:05:41.702Z,97.92
2022-12-03T18:08:08.741Z,98.31
2022-12-03T18:10:35.878Z,98.23
2022-12-03T18:13:02.922Z,98.15
2022-12-03T18:15:30.885Z,98.16
2022-12-03T18:17:57.976Z,98.50
2022-12-03T18:20:24.983Z,98.00
2022-12-03T18:22:52.080Z,97.90
2022-12-03T18:25:19.445Z,98.88
2022-12-03T18:27:46.957Z,98.81
2022-12-03T18:30:14.141Z,99.35
2022-12-03T18:32:41.103Z,99.36
2022-12-03T18:35:08.413Z,99.99
2022-12-03T18:37:35.628Z,100.00
2022-12-03T18:40:12.486Z,100.00
2022-12-03T18:42:40.205Z,100.00
2022-12-03T18:45:11.291Z,100.00
2022-12-03T18:47:38.259Z,100.00
2022-12-03T18:50:07.248Z,100.00
2022-12-03T18:52:34.367Z,100.00
2022-12-03T18:55:01.734Z,100.00
2022-12-03T18:57:28.680Z,99.91
2022-12-03T18:59:55.949Z,100.00
2022-12-03T19:03:02.045Z,100.00
2022-12-03T19:05:10.485Z,99.81
2022-12-03T19:07:37.738Z,99.69
2022-12-03T19:10:05.795Z,100.00
2022-12-03T19:12:33.758Z,99.96
2022-12-03T19:15:00.928Z,99.77
2022-12-03T19:17:27.980Z,99.41
2022-12-03T19:19:55.618Z,99.59
2022-12-03T19:22:23.299Z,99.71
2022-12-03T19:24:50.724Z,99.20
2022-12-03T19:27:17.967Z,99.54
2022-12-03T19:29:48.273Z,99.45
2022-12-03T19:32:15.271Z,99.90
2022-12-03T19:34:42.660Z,99.40
2022-12-03T19:37:09.597Z,99.67
2022-12-03T19:39:36.623Z,99.48
2022-12-03T19:42:03.831Z,98.96
2022-12-03T19:44:31.029Z,99.39
2022-12-03T19:46:58.127Z,100.00
2022-12-03T19:49:25.316Z,99.94
2022-12-03T19:51:52.392Z,99.38
2022-12-03T19:54:19.609Z,99.19
2022-12-03T19:56:46.798Z,99.65
2022-12-03T19:59:14.376Z,98.96
2022-12-03T20:01:43.233Z,98.87
2022-12-03T20:04:12.134Z,98.88
2022-12-03T20:06:39.982Z,98.72
2022-12-03T20:09:13.838Z,98.68
2022-12-03T20:11:41.964Z,97.23
2022-12-03T20:14:14.935Z,98.32
2022-12-03T20:16:42.394Z,98.39
2022-12-03T20:19:12.770Z,98.28
2022-12-03T20:21:40.968Z,98.33
2022-12-03T20:24:11.405Z,98.66
2022-12-03T20:26:38.563Z,98.96
2022-12-03T20:29:05.549Z,98.64
2022-12-03T20:31:32.952Z,99.08
2022-12-03T20:34:02.523Z,99.22
2022-12-03T20:36:31.694Z,99.34
2022-12-03T20:39:05.800Z,99.45
2022-12-03T20:41:36.024Z,99.22
2022-12-03T20:44:03.776Z,99.42
2022-12-03T20:46:31.643Z,99.95
2022-12-03T20:48:59.633Z,99.07
2022-12-03T20:51:30.147Z,99.72
2022-12-03T20:53:59.169Z,98.95
2022-12-03T20:56:31.685Z,99.26
2022-12-03T20:59:06.442Z,99.38
2022-12-03T21:01:36.077Z,99.19
2022-12-03T21:04:04.929Z,98.78
2022-12-03T21:06:34.892Z,98.98
2022-12-03T21:09:05.131Z,98.61
2022-12-03T21:11:33.957Z,98.96
2022-12-03T21:14:00.943Z,98.93
2022-12-03T21:17:05.951Z,98.57
2022-12-03T21:19:22.386Z,98.76
2022-12-03T21:21:49.506Z,98.64
2022-12-03T21:24:16.557Z,98.67
2022-12-03T21:26:43.453Z,98.59
2022-12-03T21:29:10.476Z,98.31
2022-12-03T21:31:39.768Z,98.39
2022-12-03T21:34:08.451Z,98.37
2022-12-03T21:36:35.711Z,99.01
2022-12-03T21:39:02.657Z,98.16
2022-12-03T21:41:29.633Z,97.97
2022-12-03T21:43:56.539Z,97.97
2022-12-03T21:47:09.407Z,98.06
2022-12-03T21:49:10.455Z,98.45
2022-12-03T21:51:37.814Z,97.84
2022-12-03T21:54:04.926Z,98.35
2022-12-03T21:56:33.020Z,99.15
2022-12-03T21:59:00.002Z,98.60
2022-12-03T22:01:27.347Z,98.36
2022-12-03T22:03:54.382Z,98.87
2022-12-03T22:06:21.945Z,98.88
2022-12-03T22:08:49.341Z,98.73
2022-12-03T22:11:23.358Z,97.73
2022-12-03T22:13:50.826Z,98.02
2022-12-03T22:16:20.898Z,97.81
2022-12-03T22:18:48.267Z,97.97
2022-12-03T22:21:20.588Z,97.94
2022-12-03T22:23:47.846Z,98.31
2022-12-03T22:26:17.873Z,98.08
2022-12-03T22:28:47.391Z,98.35
2022-12-03T22:31:16.077Z,98.77
2022-12-03T22:33:43.741Z,98.46
2022-12-03T22:36:20.115Z,98.71
2022-12-03T22:38:49.674Z,99.13
2022-12-03T22:41:17.770Z,99.29
2022-12-03T22:43:45.957Z,99.62
2022-12-03T22:46:13.606Z,99.81
2022-12-03T22:48:46.336Z,100.00
2022-12-03T22:51:22.937Z,100.00
2022-12-03T22:53:59.587Z,100.00
2022-12-03T22:56:28.523Z,100.00
2022-12-03T22:58:55.691Z,100.00
2022-12-03T23:01:26.675Z,100.00
2022-12-03T23:03:54.432Z,100.00
2022-12-03T23:06:23.073Z,100.00
2022-12-03T23:08:50.548Z,100.00
2022-12-03T23:11:18.323Z,100.00
2022-12-03T23:13:45.462Z,100.00
2022-12-03T23:16:23.587Z,100.00
2022-12-03T23:18:50.962Z,100.00
2022-12-03T23:21:29.016Z,100.00
2022-12-03T23:24:01.435Z,100.00
2022-12-03T23:26:29.076Z,100.00
2022-12-03T23:28:56.716Z,100.00
2022-12-03T23:31:31.676Z,100.00
2022-12-03T23:33:59.822Z,100.00
2022-12-03T23:36:30.061Z,100.00
2022-12-03T23:38:57.082Z,100.00
2022-12-03T23:41:24.782Z,100.00
2022-12-03T23:43:52.113Z,100.00
2022-12-03T23:46:26.174Z,100.00
2022-12-03T23:48:53.593Z,100.00
2022-12-03T23:51:24.326Z,100.00
2022-12-03T23:53:53.198Z,100.00
2022-12-03T23:56:25.513Z,100.00
2022-12-03T23:58:52.559Z,100.00
